createdAt,value
2018-04-18T00:01:22.679Z,75.56
2018-04-18T00:04:25.931Z,75.61
2018-04-18T00:07:29.221Z,75.65
2018-04-18T00:10:32.466Z,75.42
2018-04-18T00:13:35.734Z,75.46
2018-04-18T00:16:39.019Z,75.50
2018-04-18T00:19:42.281Z,75.44
2018-04-18T00:22:45.548Z,75.85
2018-04-18T00:25:48.829Z,75.81
2018-04-18T00:28:52.098Z,76.02
2018-04-18T00:31:55.442Z,76.01
2018-04-18T00:34:58.736Z,75.75
2018-04-18T00:38:20.555Z,75.83
2018-04-18T00:41:30.720Z,76.07
2018-04-18T00:44:34.758Z,75.88
2018-04-18T00:47:38.024Z,76.12
2018-04-18T00:50:42.273Z,76.28
2018-04-18T00:53:45.531Z,76.25
2018-04-18T00:56:48.777Z,76.49
2018-04-18T00:59:52.045Z,76.39
2018-04-18T01:02:55.322Z,76.66
2018-04-18T01:05:58.599Z,76.71
2018-04-18T01:09:01.847Z,76.48
2018-04-18T01:12:05.094Z,76.73
2018-04-18T01:15:08.386Z,77.14
2018-04-18T01:18:11.648Z,77.43
2018-04-18T01:21:14.901Z,77.03
2018-04-18T01:24:18.197Z,77.05
2018-04-18T01:27:21.591Z,76.93
2018-04-18T01:30:24.842Z,76.52
2018-04-18T01:33:28.113Z,77.00
2018-04-18T01:36:32.145Z,77.21
2018-04-18T01:39:35.417Z,77.08
2018-04-18T01:42:38.694Z,77.66
2018-04-18T01:45:41.949Z,77.27
2018-04-18T01:48:45.970Z,77.14
2018-04-18T01:51:49.996Z,77.26
2018-04-18T01:54:53.245Z,77.41
2018-04-18T01:57:56.513Z,77.73
2018-04-18T02:00:59.756Z,77.43
2018-04-18T02:04:03.024Z,77.81
2018-04-18T02:07:06.272Z,77.58
2018-04-18T02:10:10.310Z,77.36
2018-04-18T02:13:13.601Z,77.18
2018-04-18T02:16:16.850Z,77.22
2018-04-18T02:19:20.111Z,77.39
2018-04-18T02:22:23.376Z,77.23
2018-04-18T02:25:27.389Z,77.33
2018-04-18T02:28:31.402Z,77.48
2018-04-18T02:31:35.418Z,77.15
2018-04-18T02:34:39.458Z,76.91
2018-04-18T02:37:42.717Z,76.74
2018-04-18T02:40:45.978Z,76.72
2018-04-18T02:43:49.219Z,76.72
2018-04-18T02:46:52.483Z,76.54
2018-04-18T02:49:55.748Z,76.80
2018-04-18T02:52:58.995Z,77.09
2018-04-18T02:56:02.257Z,76.92
2018-04-18T02:59:05.509Z,76.90
2018-04-18T03:02:08.773Z,77.17
2018-04-18T03:05:12.035Z,77.41
2018-04-18T03:08:15.320Z,77.67
2018-04-18T03:11:18.573Z,77.13
2018-04-18T03:14:21.924Z,77.47
2018-04-18T03:17:25.204Z,77.36
2018-04-18T03:20:28.491Z,77.57
2018-04-18T03:23:33.103Z,77.42
2018-04-18T03:26:36.420Z,77.65
2018-04-18T03:29:39.702Z,78.20
2018-04-18T03:32:42.969Z,77.90
2018-04-18T03:35:46.327Z,78.22
2018-04-18T03:38:50.345Z,78.66
2018-04-18T03:41:53.596Z,78.01
2018-04-18T03:44:56.855Z,78.01
2018-04-18T03:48:00.112Z,78.12
2018-04-18T03:51:04.125Z,78.13
2018-04-18T03:54:08.186Z,77.99
2018-04-18T03:57:11.550Z,78.03
2018-04-18T04:00:15.578Z,78.05
2018-04-18T04:03:18.878Z,78.22
2018-04-18T04:06:22.146Z,78.00
2018-04-18T04:09:25.480Z,78.65
2018-04-18T04:12:28.723Z,77.89
2018-04-18T04:15:32.782Z,78.04
2018-04-18T04:18:54.525Z,77.89
2018-04-18T04:22:17.426Z,77.92
2018-04-18T04:25:21.447Z,77.93
2018-04-18T04:28:24.696Z,77.68
2018-04-18T04:31:28.033Z,77.54
2018-04-18T04:34:32.840Z,77.52
2018-04-18T04:37:36.159Z,78.08
2018-04-18T04:40:39.418Z,77.67
2018-04-18T04:43:42.703Z,77.48
2018-04-18T04:46:46.748Z,77.57
2018-04-18T04:49:50.023Z,77.25
2018-04-18T04:52:53.340Z,77.57
2018-04-18T04:55:56.618Z,76.89
2018-04-18T04:58:59.866Z,77.19
2018-04-18T05:02:03.140Z,76.79
2018-04-18T05:05:06.437Z,76.61
2018-04-18T05:08:09.683Z,76.40
2018-04-18T05:11:13.719Z,75.49
2018-04-18T05:14:16.980Z,74.71
2018-04-18T05:17:20.234Z,74.12
2018-04-18T05:20:23.529Z,72.16
2018-04-18T05:23:26.774Z,74.37
2018-04-18T05:26:30.038Z,75.84
2018-04-18T05:29:33.368Z,77.39
2018-04-18T05:32:36.657Z,75.87
2018-04-18T05:35:39.905Z,74.80
2018-04-18T05:38:43.152Z,72.63
2018-04-18T05:41:46.453Z,70.28
2018-04-18T05:44:49.725Z,68.38
2018-04-18T05:47:52.980Z,66.62
2018-04-18T05:50:57.037Z,65.41
2018-04-18T05:54:00.319Z,65.60
2018-04-18T05:57:03.613Z,64.91
2018-04-18T06:00:06.876Z,62.61
2018-04-18T06:03:10.962Z,59.06
2018-04-18T06:06:14.289Z,56.04
2018-04-18T06:09:17.521Z,52.79
2018-04-18T06:12:20.770Z,52.02
2018-04-18T06:15:24.050Z,52.96
2018-04-18T06:18:27.818Z,51.08
2018-04-18T06:21:31.115Z,49.14
2018-04-18T06:24:34.373Z,49.14
2018-04-18T06:27:37.813Z,50.07
2018-04-18T06:30:41.105Z,49.06
2018-04-18T06:33:44.405Z,48.91
2018-04-18T06:36:47.765Z,49.09
2018-04-18T06:39:51.040Z,49.04
2018-04-18T06:42:54.304Z,48.38
2018-04-18T06:45:57.595Z,53.19
2018-04-18T06:49:00.822Z,51.11
2018-04-18T06:52:04.105Z,49.56
2018-04-18T06:55:07.388Z,49.59
2018-04-18T06:58:10.648Z,49.78
2018-04-18T07:01:13.932Z,51.54
2018-04-18T07:04:17.184Z,52.86
2018-04-18T07:07:20.448Z,52.43
2018-04-18T07:10:23.796Z,50.72
2018-04-18T07:13:27.265Z,51.48
2018-04-18T07:16:31.298Z,51.10
2018-04-18T07:19:34.569Z,50.93
2018-04-18T07:22:37.843Z,51.41
2018-04-18T07:25:41.113Z,50.56
2018-04-18T07:28:44.364Z,50.41
2018-04-18T07:31:48.451Z,49.47
2018-04-18T07:34:51.711Z,51.88
2018-04-18T07:37:55.000Z,47.80
2018-04-18T07:40:58.274Z,47.91
2018-04-18T07:44:02.294Z,45.64
2018-04-18T07:47:06.327Z,47.34
2018-04-18T07:50:09.593Z,44.91
2018-04-18T07:53:12.838Z,46.82
2018-04-18T07:56:16.099Z,46.38
2018-04-18T07:59:20.131Z,49.16
2018-04-18T08:02:23.552Z,46.10
2018-04-18T08:05:26.797Z,47.17
2018-04-18T08:08:30.335Z,46.51
2018-04-18T08:11:33.574Z,45.18
2018-04-18T08:14:36.838Z,45.43
2018-04-18T08:17:40.098Z,44.59
2018-04-18T08:20:44.137Z,44.69
2018-04-18T08:23:47.398Z,45.68
2018-04-18T08:26:50.673Z,44.31
2018-04-18T08:29:53.946Z,44.34
2018-04-18T08:32:57.331Z,44.39
2018-04-18T08:36:00.599Z,45.45
2018-04-18T08:39:03.841Z,45.08
2018-04-18T08:42:07.138Z,45.53
2018-04-18T08:45:10.380Z,43.19
2018-04-18T08:48:13.664Z,43.49
2018-04-18T08:51:16.941Z,43.46
2018-04-18T08:54:20.190Z,43.21
2018-04-18T08:57:24.249Z,42.50
2018-04-18T09:00:27.543Z,43.26
2018-04-18T09:03:31.184Z,41.51
2018-04-18T09:06:34.509Z,40.71
2018-04-18T09:09:38.588Z,41.01
2018-04-18T09:12:41.875Z,39.70
2018-04-18T09:15:45.156Z,39.04
2018-04-18T09:18:48.411Z,41.31
2018-04-18T09:21:51.702Z,41.42
2018-04-18T09:24:55.719Z,42.18
2018-04-18T09:27:59.802Z,38.92
2018-04-18T09:31:03.150Z,38.15
2018-04-18T09:34:07.224Z,37.44
2018-04-18T09:37:10.514Z,38.92
2018-04-18T09:40:13.886Z,39.02
2018-04-18T09:43:17.144Z,39.47
2018-04-18T09:46:20.474Z,40.39
2018-04-18T09:49:23.764Z,38.55
2018-04-18T09:52:27.884Z,37.14
2018-04-18T09:55:31.910Z,38.39
2018-04-18T09:58:35.209Z,36.52
2018-04-18T10:01:43.166Z,37.70
2018-04-18T10:04:46.491Z,36.75
2018-04-18T10:07:49.745Z,38.33
2018-04-18T10:10:53.006Z,37.54
2018-04-18T10:13:56.293Z,36.40
2018-04-18T10:17:00.352Z,36.21
2018-04-18T10:20:03.614Z,37.10
2018-04-18T10:23:07.636Z,35.92
2018-04-18T10:26:10.890Z,34.56
2018-04-18T10:29:14.189Z,37.14
2018-04-18T10:32:17.457Z,32.47
2018-04-18T10:35:20.723Z,34.72
2018-04-18T10:38:23.978Z,35.19
2018-04-18T10:41:27.231Z,35.61
2018-04-18T10:44:30.519Z,33.01
2018-04-18T10:47:33.790Z,33.79
2018-04-18T10:50:37.049Z,33.46
2018-04-18T10:53:40.306Z,32.99
2018-04-18T10:56:43.620Z,31.81
2018-04-18T10:59:46.868Z,30.11
2018-04-18T11:02:50.136Z,31.02
2018-04-18T11:05:53.429Z,33.83
2018-04-18T11:08:56.649Z,33.14
2018-04-18T11:11:59.929Z,35.42
2018-04-18T11:15:04.006Z,33.27
2018-04-18T11:18:07.263Z,32.44
2018-04-18T11:21:10.511Z,34.36
2018-04-18T11:24:13.769Z,38.50
2018-04-18T11:27:17.044Z,37.06
2018-04-18T11:30:20.324Z,32.00
2018-04-18T11:33:23.602Z,34.13
2018-04-18T11:36:26.950Z,33.78
2018-04-18T11:39:30.223Z,33.14
2018-04-18T11:42:33.501Z,32.79
2018-04-18T11:45:36.771Z,31.89
2018-04-18T11:48:40.033Z,32.90
2018-04-18T11:51:43.309Z,32.62
2018-04-18T11:54:46.561Z,31.75
2018-04-18T11:57:49.872Z,31.30
2018-04-18T12:00:53.127Z,33.33
2018-04-18T12:03:56.420Z,34.14
2018-04-18T12:06:59.731Z,33.10
2018-04-18T12:10:02.989Z,33.53
2018-04-18T12:13:08.850Z,34.73
2018-04-18T12:16:12.422Z,34.27
2018-04-18T12:19:15.811Z,34.79
2018-04-18T12:22:20.353Z,34.59
2018-04-18T12:25:24.173Z,35.26
2018-04-18T12:28:40.955Z,34.20
2018-04-18T12:31:45.803Z,33.51
2018-04-18T12:34:54.730Z,33.38
2018-04-18T12:38:07.359Z,33.33
2018-04-18T12:41:11.090Z,30.77
2018-04-18T12:44:14.478Z,32.11
2018-04-18T12:47:19.489Z,30.56
2018-04-18T12:50:23.675Z,29.63
2018-04-18T12:53:28.025Z,31.11
2018-04-18T12:56:31.477Z,30.64
2018-04-18T12:59:34.845Z,29.36
2018-04-18T13:02:39.699Z,26.39
2018-04-18T13:05:42.969Z,25.53
2018-04-18T13:08:46.228Z,27.36
2018-04-18T13:12:14.153Z,27.70
2018-04-18T13:15:17.414Z,26.24
2018-04-18T13:18:20.901Z,22.38
2018-04-18T13:21:24.142Z,22.44
2018-04-18T13:24:27.402Z,23.49
2018-04-18T13:27:31.443Z,25.03
2018-04-18T13:30:34.711Z,27.15
2018-04-18T13:33:38.751Z,29.71
2018-04-18T13:36:42.043Z,28.19
2018-04-18T13:39:45.270Z,26.50
2018-04-18T13:42:49.327Z,28.09
2018-04-18T13:45:52.589Z,26.70
2018-04-18T13:48:55.856Z,27.03
2018-04-18T13:51:59.290Z,24.04
2018-04-18T13:55:02.554Z,26.52
2018-04-18T13:58:06.490Z,26.33
2018-04-18T14:01:09.791Z,28.88
2018-04-18T14:04:13.311Z,28.85
2018-04-18T14:07:16.626Z,29.17
2018-04-18T14:10:19.890Z,27.09
2018-04-18T14:13:23.262Z,26.68
2018-04-18T14:16:26.523Z,27.87
2018-04-18T14:19:29.800Z,28.26
2018-04-18T14:22:33.175Z,27.28
2018-04-18T14:25:36.465Z,27.91
2018-04-18T14:28:39.715Z,28.67
2018-04-18T14:31:42.971Z,28.95
2018-04-18T14:34:46.269Z,28.68
2018-04-18T14:37:49.589Z,28.59
2018-04-18T14:40:53.661Z,30.62
2018-04-18T14:43:56.947Z,30.58
2018-04-18T14:47:02.425Z,30.27
2018-04-18T14:50:05.716Z,29.61
2018-04-18T14:53:09.011Z,29.69
2018-04-18T14:56:12.291Z,29.58
2018-04-18T14:59:15.559Z,29.29
2018-04-18T15:02:18.869Z,30.41
2018-04-18T15:05:22.937Z,29.79
2018-04-18T15:08:26.198Z,30.17
2018-04-18T15:11:30.260Z,30.25
2018-04-18T15:14:33.606Z,29.79
2018-04-18T15:17:37.692Z,29.77
2018-04-18T15:20:41.008Z,29.64
2018-04-18T15:23:44.277Z,29.02
2018-04-18T15:26:47.535Z,28.36
2018-04-18T15:29:50.832Z,27.83
2018-04-18T15:32:55.629Z,27.77
2018-04-18T15:35:59.196Z,28.51
2018-04-18T15:39:03.394Z,28.79
2018-04-18T15:42:06.688Z,28.99
2018-04-18T15:45:10.082Z,28.59
2018-04-18T15:48:14.350Z,29.65
2018-04-18T15:51:17.630Z,29.09
2018-04-18T15:54:20.932Z,28.77
2018-04-18T15:57:24.244Z,28.22
2018-04-18T16:00:27.523Z,27.97
2018-04-18T16:03:31.315Z,28.35
2018-04-18T16:06:35.365Z,28.02
2018-04-18T16:09:38.751Z,27.66
2018-04-18T16:12:42.075Z,28.35
2018-04-18T16:15:45.457Z,29.50
2018-04-18T16:18:48.863Z,29.39
2018-04-18T16:21:52.601Z,29.34
2018-04-18T16:24:57.515Z,29.03
2018-04-18T16:28:00.933Z,28.15
2018-04-18T16:31:04.216Z,28.19
2018-04-18T16:34:07.513Z,28.96
2018-04-18T16:37:10.966Z,29.08
2018-04-18T16:40:15.151Z,29.77
2018-04-18T16:43:18.888Z,28.79
2018-04-18T16:46:22.285Z,29.65
2018-04-18T16:49:26.452Z,29.91
2018-04-18T16:52:29.824Z,30.11
2018-04-18T16:55:33.895Z,30.12
2018-04-18T16:58:37.199Z,30.29
2018-04-18T17:02:05.094Z,30.11
2018-04-18T17:05:09.479Z,29.62
2018-04-18T17:08:12.763Z,29.92
2018-04-18T17:11:16.056Z,29.81
2018-04-18T17:14:19.542Z,30.06
2018-04-18T17:17:22.798Z,30.53
2018-04-18T17:20:26.201Z,31.31
2018-04-18T17:23:29.543Z,31.08
2018-04-18T17:26:32.848Z,31.16
2018-04-18T17:29:36.142Z,30.96
2018-04-18T17:32:40.449Z,31.00
2018-04-18T17:35:44.497Z,31.50
2018-04-18T17:38:47.759Z,31.75
2018-04-18T17:41:51.795Z,31.92
2018-04-18T17:44:55.075Z,31.93
2018-04-18T17:47:59.098Z,32.47
2018-04-18T17:51:02.390Z,32.65
2018-04-18T17:54:05.777Z,33.11
2018-04-18T17:57:09.831Z,33.40
2018-04-18T18:00:13.117Z,34.16
2018-04-18T18:03:17.134Z,34.40
2018-04-18T18:06:20.449Z,35.26
2018-04-18T18:09:24.266Z,35.37
2018-04-18T18:12:27.525Z,36.04
2018-04-18T18:15:31.600Z,36.92
2018-04-18T18:18:34.859Z,37.53
2018-04-18T18:21:38.893Z,38.11
2018-04-18T18:24:42.154Z,38.66
2018-04-18T18:27:46.189Z,39.68
2018-04-18T18:30:50.226Z,40.15
2018-04-18T18:33:53.500Z,40.67
2018-04-18T18:36:56.812Z,41.26
2018-04-18T18:40:00.100Z,41.51
2018-04-18T18:43:09.141Z,42.38
2018-04-18T18:46:12.470Z,42.71
2018-04-18T18:49:16.506Z,42.78
2018-04-18T18:52:19.799Z,43.86
2018-04-18T18:55:23.075Z,44.22
2018-04-18T18:58:26.394Z,44.10
2018-04-18T19:01:29.654Z,44.70
2018-04-18T19:04:33.005Z,45.34
2018-04-18T19:07:36.321Z,47.46
2018-04-18T19:10:39.684Z,48.15
2018-04-18T19:13:43.726Z,48.54
2018-04-18T19:16:46.996Z,48.54
2018-04-18T19:19:50.287Z,48.87
2018-04-18T19:22:54.433Z,48.79
2018-04-18T19:25:58.684Z,50.12
2018-04-18T19:29:02.026Z,50.23
2018-04-18T19:32:06.223Z,50.24
2018-04-18T19:35:09.501Z,50.40
2018-04-18T19:38:12.788Z,50.65
2018-04-18T19:41:16.073Z,50.61
2018-04-18T19:44:19.355Z,51.24
2018-04-18T19:47:25.685Z,50.86
2018-04-18T19:50:28.960Z,50.96
2018-04-18T19:53:32.705Z,51.67
2018-04-18T19:56:36.800Z,51.30
2018-04-18T19:59:40.919Z,51.90
2018-04-18T20:02:44.196Z,51.74
2018-04-18T20:05:48.234Z,50.02
2018-04-18T20:12:25.217Z,49.04
2018-04-18T20:15:28.697Z,49.75
2018-04-18T20:18:31.944Z,49.74
2018-04-18T20:21:36.030Z,49.49
2018-04-18T20:24:39.305Z,48.69
2018-04-18T20:27:42.565Z,48.97
2018-04-18T20:30:45.862Z,49.76
2018-04-18T20:33:49.141Z,48.59
2018-04-18T20:36:53.170Z,49.23
2018-04-18T20:39:56.436Z,48.42
2018-04-18T20:42:59.762Z,50.62
2018-04-18T20:46:34.778Z,50.13
2018-04-18T20:49:40.213Z,50.75
2018-04-18T20:52:43.470Z,50.82
2018-04-18T20:55:47.530Z,51.26
2018-04-18T20:58:50.822Z,51.58
2018-04-18T21:01:54.121Z,51.70
2018-04-18T21:04:57.463Z,52.29
2018-04-18T21:08:00.725Z,52.71
2018-04-18T21:11:03.988Z,53.11
2018-04-18T21:14:07.341Z,52.90
2018-04-18T21:17:10.603Z,52.80
2018-04-18T21:20:13.880Z,52.80
2018-04-18T21:23:19.158Z,53.16
2018-04-18T21:26:22.432Z,53.29
2018-04-18T21:29:26.468Z,53.94
2018-04-18T21:32:30.139Z,53.90
2018-04-18T21:35:34.172Z,53.30
2018-04-18T21:38:37.460Z,53.48
2018-04-18T21:41:41.520Z,53.78
2018-04-18T21:44:44.809Z,55.03
2018-04-18T21:47:48.073Z,54.63
2018-04-18T21:50:51.364Z,54.97
2018-04-18T21:53:55.434Z,55.08
2018-04-18T21:56:59.465Z,55.27
2018-04-18T22:00:02.736Z,55.63
2018-04-18T22:03:06.009Z,55.99
2018-04-18T22:06:09.328Z,56.06
2018-04-18T22:09:12.634Z,58.91
2018-04-18T22:12:15.901Z,59.58
2018-04-18T22:15:19.178Z,59.47
2018-04-18T22:18:23.351Z,59.63
2018-04-18T22:21:27.449Z,60.25
2018-04-18T22:24:30.720Z,61.36
2018-04-18T22:27:50.134Z,61.06
2018-04-18T22:30:53.697Z,60.82
2018-04-18T22:33:57.739Z,61.47
2018-04-18T22:37:01.042Z,61.16
2018-04-18T22:40:04.300Z,61.30
2018-04-18T22:43:08.365Z,61.61
2018-04-18T22:46:11.633Z,61.48
2018-04-18T22:49:14.949Z,61.47
2018-04-18T22:52:18.825Z,61.33
2018-04-18T22:55:22.868Z,60.53
2018-04-18T22:58:26.184Z,60.76
2018-04-18T23:01:29.715Z,60.75
2018-04-18T23:04:32.978Z,60.71
2018-04-18T23:07:36.244Z,60.78
2018-04-18T23:10:40.295Z,60.97
2018-04-18T23:13:43.565Z,60.98
2018-04-18T23:16:46.869Z,60.97
2018-04-18T23:19:50.148Z,61.29
2018-04-18T23:22:55.037Z,61.40
2018-04-18T23:25:58.295Z,61.53
2018-04-18T23:29:01.567Z,61.59
2018-04-18T23:32:04.847Z,61.86
2018-04-18T23:35:08.186Z,62.31
2018-04-18T23:38:12.237Z,62.50
2018-04-18T23:41:15.513Z,62.21
2018-04-18T23:44:18.846Z,62.76
2018-04-18T23:47:22.112Z,62.43
2018-04-18T23:50:25.458Z,62.92
2018-04-18T23:53:28.716Z,62.24
2018-04-18T23:56:31.966Z,62.46
2018-04-18T23:59:36.005Z,62.15
